Lanesville, New York
Current Conditions -  °F | °C
As of 1:53 PM on Saturday 25 Oct 2014 (Local Time) from KPOU Reporting Station
Clear Clear  
Wind Chill: 65°   Ceiling: Unl
Heat Index: 65°   Visibility: 10mi
Dew Point: 43°   Wind: 15mph
Humidity: 45%   Direction: 240°WSW
Pressure: 29.71"   Gusts: NA
Location:  42.14°N, 74.27°W
Report Text: KPOU 251753Z 24013KT 10SM CLR 18/06 A2971 RMK AO2 SLP057 T01830061 10189 20017 56034
Loading
Personal Weather Stations






























Interactive Weather Map
Tropical Storm Tracking
New forecast layout! Learn more

10-Day Weather Forecast

Advertisements
Track Severe Weather on mobile